Time;durP1;ratioP1;P1;durP2;ratioP2;P2;SDS_P1;SDS_P2;PMS_P1;PMS_P2;Temp;Humidity;BMP_temperature;BMP_pressure;BME280_temperature;BME280_humidity;BME280_pressure;Samples;Min_cycle;Max_cycle;Signal;HPM_P1;HPM_P2
2023/05/03 00:00:59;;;;;;;0.88;0.60;;;9.80;99.90;;;;;;4423576;32;20078;-66
2023/05/03 00:03:25;;;;;;;0.30;0.30;;;9.60;99.90;;;;;;4420942;32;20098;-66
2023/05/03 00:05:51;;;;;;;0.50;0.50;;;9.60;99.90;;;;;;4422661;32;20085;-66
2023/05/03 00:08:16;;;;;;;0.40;0.40;;;9.50;99.90;;;;;;4419551;32;20510;-66
2023/05/03 00:10:42;;;;;;;0.32;0.32;;;9.50;99.90;;;;;;4421258;32;20090;-65
2023/05/03 00:13:07;;;;;;;0.47;0.47;;;9.40;99.90;;;;;;4421814;32;20508;-64
2023/05/03 00:15:33;;;;;;;0.40;0.40;;;9.40;99.90;;;;;;4422442;32;20089;-66
2023/05/03 00:17:58;;;;;;;0.50;0.50;;;9.50;99.90;;;;;;4421736;32;20117;-66
2023/05/03 00:20:24;;;;;;;1.05;0.57;;;9.40;99.90;;;;;;4420725;32;20509;-67
2023/05/03 00:22:50;;;;;;;0.43;0.43;;;9.40;99.90;;;;;;4424277;32;20078;-64
2023/05/03 00:25:15;;;;;;;0.30;0.30;;;9.40;99.90;;;;;;4417812;32;20081;-64
2023/05/03 00:27:41;;;;;;;0.30;0.30;;;9.30;99.90;;;;;;4420875;32;20082;-66
2023/05/03 00:30:07;;;;;;;0.30;0.30;;;9.30;99.90;;;;;;4407611;32;20061;-66
2023/05/03 00:32:32;;;;;;;0.70;0.40;;;9.20;99.90;;;;;;4421085;32;20606;-66
2023/05/03 00:34:58;;;;;;;1.25;1.15;;;9.20;99.90;;;;;;4421659;32;20093;-66
2023/05/03 00:37:24;;;;;;;0.60;0.60;;;9.20;99.90;;;;;;4417981;32;20837;-66
2023/05/03 00:39:50;;;;;;;0.30;0.30;;;9.10;99.90;;;;;;4399275;32;20093;-66
2023/05/03 00:42:15;;;;;;;0.50;0.50;;;9.00;99.90;;;;;;4420603;32;20114;-66
2023/05/03 00:44:41;;;;;;;0.32;0.32;;;9.00;99.90;;;;;;4422304;32;20077;-66
2023/05/03 00:47:07;;;;;;;0.40;0.40;;;9.00;99.90;;;;;;4422979;32;20050;-66
2023/05/03 00:49:33;;;;;;;0.40;0.40;;;9.00;99.90;;;;;;4406497;32;20093;-65
2023/05/03 00:51:58;;;;;;;0.40;0.40;;;9.00;99.90;;;;;;4421074;32;20072;-66
2023/05/03 00:54:26;;;;;;;0.35;0.35;;;8.90;99.90;;;;;;4409752;32;20061;-66
2023/05/03 00:56:52;;;;;;;0.40;0.40;;;8.80;99.90;;;;;;4422223;32;20209;-66
2023/05/03 00:59:18;;;;;;;13.13;1.23;;;8.70;99.90;;;;;;4423760;32;20612;-66
2023/05/03 01:01:48;;;;;;;0.62;0.60;;;8.50;99.90;;;;;;4422942;32;20484;-66
2023/05/03 01:04:13;;;;;;;0.75;0.65;;;8.40;99.90;;;;;;4423452;32;20094;-66
2023/05/03 01:06:51;;;;;;;0.85;0.80;;;8.40;99.90;;;;;;4424209;32;20054;-66
2023/05/03 01:09:26;;;;;;;1.65;1.15;;;8.30;99.90;;;;;;4423570;32;20492;-66
2023/05/03 01:12:13;;;;;;;0.40;0.40;;;8.30;99.90;;;;;;4410699;32;20077;-65
2023/05/03 01:14:57;;;;;;;0.40;0.40;;;8.30;99.90;;;;;;4424456;32;20151;-65
2023/05/03 01:17:27;;;;;;;0.40;0.40;;;8.20;99.90;;;;;;4424322;32;20125;-66
2023/05/03 01:20:03;;;;;;;0.30;0.30;;;8.00;99.90;;;;;;4422054;32;20081;-65
2023/05/03 01:22:41;;;;;;;0.50;0.50;;;8.00;99.90;;;;;;4423108;32;20069;-66
2023/05/03 01:25:09;;;;;;;0.70;0.68;;;8.00;99.90;;;;;;4423186;32;20081;-65
2023/05/03 01:27:36;;;;;;;4.90;1.15;;;8.00;99.90;;;;;;4410023;32;20078;-65
2023/05/03 01:30:04;;;;;;;6.50;0.82;;;7.90;99.90;;;;;;4424296;32;20062;-66
2023/05/03 01:32:37;;;;;;;0.30;0.30;;;7.90;99.90;;;;;;4398611;32;20112;-65
2023/05/03 01:35:13;;;;;;;0.32;0.32;;;7.80;99.90;;;;;;4424817;32;20065;-66
2023/05/03 01:37:39;;;;;;;0.40;0.40;;;7.70;99.90;;;;;;4424156;32;20089;-65
2023/05/03 01:40:07;;;;;;;0.50;0.50;;;7.80;99.90;;;;;;4422622;32;20527;-66
2023/05/03 01:42:37;;;;;;;0.30;0.30;;;7.60;99.90;;;;;;4423964;32;20485;-65
2023/05/03 01:45:04;;;;;;;0.40;0.40;;;7.60;99.90;;;;;;4424417;32;20069;-66
2023/05/03 01:47:29;;;;;;;0.40;0.32;;;7.60;99.90;;;;;;4423405;32;20065;-66
2023/05/03 01:49:55;;;;;;;0.60;0.60;;;7.60;99.90;;;;;;4424024;32;20552;-66
2023/05/03 01:52:21;;;;;;;0.30;0.30;;;7.40;99.90;;;;;;4419855;32;21210;-66
2023/05/03 01:54:47;;;;;;;0.47;0.45;;;7.40;99.90;;;;;;4423635;32;20074;-66
2023/05/03 01:57:12;;;;;;;0.43;0.43;;;7.30;99.90;;;;;;4421584;32;20115;-66
2023/05/03 01:59:38;;;;;;;7.28;2.78;;;7.30;99.90;;;;;;4419321;32;20109;-66
2023/05/03 02:02:03;;;;;;;0.30;0.30;;;7.30;99.90;;;;;;4423244;32;20127;-66
2023/05/03 02:04:29;;;;;;;0.30;0.30;;;7.20;99.90;;;;;;4425961;32;20572;-65
2023/05/03 02:06:54;;;;;;;0.25;0.25;;;7.20;99.90;;;;;;4426326;32;20108;-66
2023/05/03 02:09:21;;;;;;;10.63;0.65;;;7.30;99.90;;;;;;4423822;32;20084;-66
2023/05/03 02:11:47;;;;;;;0.40;0.40;;;7.30;99.90;;;;;;4411091;32;20166;-66
2023/05/03 02:14:12;;;;;;;0.30;0.30;;;7.40;99.90;;;;;;4411257;32;20156;-66
2023/05/03 02:16:38;;;;;;;0.50;0.50;;;7.40;99.90;;;;;;4424424;32;20076;-66
2023/05/03 02:19:04;;;;;;;0.60;0.60;;;7.30;99.90;;;;;;4425153;32;20081;-66
2023/05/03 02:21:30;;;;;;;0.50;0.50;;;7.20;99.90;;;;;;4423980;32;20077;-66
2023/05/03 02:23:55;;;;;;;0.73;0.73;;;7.00;99.90;;;;;;4424780;32;20065;-66
2023/05/03 02:26:21;;;;;;;0.40;0.40;;;6.90;99.90;;;;;;4422944;32;20084;-64
2023/05/03 02:28:46;;;;;;;4.70;1.98;;;6.90;99.90;;;;;;4423091;32;20066;-65
2023/05/03 02:31:12;;;;;;;0.45;0.45;;;6.90;99.90;;;;;;4406535;32;20414;-65
2023/05/03 02:33:38;;;;;;;0.30;0.30;;;6.80;99.90;;;;;;4421332;32;20520;-66
2023/05/03 02:36:04;;;;;;;0.40;0.40;;;6.80;99.90;;;;;;4422327;32;20139;-66
2023/05/03 02:38:29;;;;;;;0.35;0.35;;;6.80;99.90;;;;;;4424446;32;20057;-65
2023/05/03 02:40:55;;;;;;;0.40;0.40;;;6.80;99.90;;;;;;4406715;32;20564;-66
2023/05/03 02:43:21;;;;;;;0.45;0.45;;;6.80;99.90;;;;;;4421482;32;20090;-65
2023/05/03 02:45:46;;;;;;;0.65;0.60;;;6.70;99.90;;;;;;4420578;32;20113;-66
2023/05/03 02:48:12;;;;;;;2.60;0.82;;;6.80;99.90;;;;;;4424950;32;20096;-66
2023/05/03 02:50:38;;;;;;;30.40;0.68;;;7.00;99.90;;;;;;4422526;32;20081;-66
2023/05/03 02:53:04;;;;;;;0.40;0.40;;;7.10;99.90;;;;;;4421287;32;20124;-66
2023/05/03 02:55:30;;;;;;;0.77;0.77;;;7.20;99.90;;;;;;4424063;32;20072;-65
2023/05/03 02:57:56;;;;;;;0.40;0.40;;;7.00;99.90;;;;;;4422015;32;20431;-65
2023/05/03 03:00:21;;;;;;;0.70;0.70;;;7.00;99.90;;;;;;4424187;32;20123;-65
2023/05/03 03:02:47;;;;;;;0.47;0.47;;;7.00;99.90;;;;;;4421783;32;20073;-65
2023/05/03 03:05:12;;;;;;;0.28;0.28;;;6.90;99.90;;;;;;4424455;32;20082;-65
2023/05/03 03:07:38;;;;;;;2.00;1.15;;;6.80;99.90;;;;;;4423869;32;20554;-65
2023/05/03 03:10:05;;;;;;;0.35;0.35;;;6.70;99.90;;;;;;4423350;32;20089;-65
2023/05/03 03:12:32;;;;;;;0.30;0.30;;;6.80;99.90;;;;;;4408344;32;20077;-65
2023/05/03 03:14:57;;;;;;;0.50;0.50;;;6.80;99.90;;;;;;4421909;32;20122;-65
2023/05/03 03:17:22;;;;;;;0.73;0.73;;;6.90;99.90;;;;;;4422286;32;20097;-65
2023/05/03 03:19:48;;;;;;;0.40;0.40;;;6.90;99.90;;;;;;4421358;32;20439;-65
2023/05/03 03:22:14;;;;;;;0.50;0.50;;;6.80;99.90;;;;;;4421334;32;20160;-65
2023/05/03 03:24:39;;;;;;;2.85;1.20;;;6.80;99.90;;;;;;4424786;32;20448;-65
2023/05/03 03:27:05;;;;;;;0.30;0.30;;;6.70;99.90;;;;;;4424758;32;20086;-65
2023/05/03 03:29:31;;;;;;;0.60;0.60;;;6.70;99.90;;;;;;4424100;32;20065;-65
2023/05/03 03:31:57;;;;;;;0.40;0.40;;;6.50;99.90;;;;;;4424482;32;20106;-65
2023/05/03 03:34:23;;;;;;;0.50;0.50;;;6.60;99.90;;;;;;4421668;32;20072;-65
2023/05/03 03:36:48;;;;;;;0.20;0.20;;;6.60;99.90;;;;;;4422098;32;20061;-65
2023/05/03 03:39:13;;;;;;;0.40;0.40;;;6.60;99.90;;;;;;4423246;32;20097;-65
2023/05/03 03:41:39;;;;;;;0.30;0.30;;;6.50;99.90;;;;;;4424024;32;20086;-65
2023/05/03 03:44:05;;;;;;;1.00;0.98;;;6.30;99.90;;;;;;4420303;32;20073;-65
2023/05/03 03:46:30;;;;;;;0.40;0.40;;;6.40;99.90;;;;;;4408078;32;20429;-65
2023/05/03 03:48:55;;;;;;;0.88;0.88;;;6.50;99.90;;;;;;4424140;32;20092;-65
2023/05/03 03:51:21;;;;;;;0.30;0.30;;;6.40;99.90;;;;;;4421425;32;20647;-65
2023/05/03 03:53:47;;;;;;;0.75;0.75;;;6.30;99.90;;;;;;4420091;32;20065;-65
2023/05/03 03:56:12;;;;;;;0.32;0.32;;;6.30;99.90;;;;;;4422867;32;20131;-65
2023/05/03 03:58:38;;;;;;;0.43;0.43;;;6.30;99.90;;;;;;4422299;32;20069;-65
2023/05/03 04:01:03;;;;;;;0.60;0.60;;;6.30;99.90;;;;;;4423544;32;20062;-64
2023/05/03 04:03:29;;;;;;;0.30;0.30;;;6.30;99.90;;;;;;4422863;32;20399;-64
2023/05/03 04:05:54;;;;;;;0.45;0.45;;;6.10;99.90;;;;;;4422397;32;20805;-65
2023/05/03 04:08:20;;;;;;;0.55;0.55;;;6.00;99.90;;;;;;4421589;32;20106;-65
2023/05/03 04:10:45;;;;;;;0.55;0.55;;;6.10;99.90;;;;;;4409353;32;20069;-64
2023/05/03 04:13:11;;;;;;;0.52;0.47;;;6.10;99.90;;;;;;4421869;32;20089;-64
2023/05/03 04:15:36;;;;;;;0.40;0.40;;;6.30;99.90;;;;;;4421896;32;20583;-64
2023/05/03 04:18:02;;;;;;;0.40;0.40;;;6.40;99.90;;;;;;4424609;32;20120;-64
2023/05/03 04:20:28;;;;;;;0.70;0.70;;;6.40;99.90;;;;;;4421973;32;20114;-65
2023/05/03 04:22:53;;;;;;;0.60;0.60;;;6.40;99.90;;;;;;4415001;32;20097;-64
2023/05/03 04:25:19;;;;;;;1.35;0.70;;;6.30;99.90;;;;;;4419145;32;20512;-64
2023/05/03 04:27:46;;;;;;;0.40;0.40;;;6.40;99.90;;;;;;4420685;32;20074;-64
2023/05/03 04:30:14;;;;;;;0.40;0.40;;;6.40;99.90;;;;;;4409073;32;20058;-65
2023/05/03 04:32:41;;;;;;;0.30;0.30;;;6.50;99.90;;;;;;4423452;32;20077;-65
2023/05/03 04:35:09;;;;;;;0.40;0.40;;;6.60;99.90;;;;;;4424115;32;20074;-63
2023/05/03 04:37:36;;;;;;;0.60;0.60;;;6.60;99.90;;;;;;4410946;32;20061;-65
2023/05/03 04:40:06;;;;;;;0.82;0.82;;;6.60;99.90;;;;;;4423483;32;20053;-65
2023/05/03 04:42:31;;;;;;;0.40;0.40;;;6.40;99.90;;;;;;4412242;32;20123;-65
2023/05/03 04:44:57;;;;;;;0.43;0.43;;;6.40;99.90;;;;;;4422005;32;20057;-65
2023/05/03 04:47:24;;;;;;;1.65;0.77;;;6.50;99.90;;;;;;4424460;32;20061;-65
2023/05/03 04:49:50;;;;;;;0.45;0.45;;;6.60;99.90;;;;;;4424003;32;20089;-66
2023/05/03 04:52:15;;;;;;;0.30;0.30;;;6.60;99.90;;;;;;4409394;32;20121;-66
2023/05/03 04:54:41;;;;;;;1.17;0.80;;;6.70;99.90;;;;;;4423542;32;20116;-65
2023/05/03 04:57:06;;;;;;;0.40;0.40;;;6.60;99.90;;;;;;4423911;32;20481;-66
2023/05/03 04:59:32;;;;;;;1.48;0.98;;;6.70;99.90;;;;;;4423562;32;20069;-66
2023/05/03 05:01:57;;;;;;;0.65;0.65;;;6.90;99.90;;;;;;4417763;32;20078;-64
2023/05/03 05:04:22;;;;;;;0.40;0.40;;;7.00;99.90;;;;;;4421037;32;20077;-66
2023/05/03 05:06:51;;;;;;;2.20;1.42;;;7.00;99.90;;;;;;4419958;32;20453;-65
2023/05/03 05:09:23;;;;;;;0.40;0.40;;;7.00;99.90;;;;;;4422175;32;20083;-65
2023/05/03 05:11:49;;;;;;;0.50;0.50;;;7.00;99.90;;;;;;4420789;32;20102;-65
2023/05/03 05:14:15;;;;;;;0.60;0.60;;;7.00;99.90;;;;;;4423383;32;20364;-66
2023/05/03 05:16:40;;;;;;;0.45;0.45;;;7.10;99.90;;;;;;4415409;32;20136;-65
2023/05/03 05:19:06;;;;;;;0.98;0.62;;;7.20;99.90;;;;;;4412404;32;20086;-66
2023/05/03 05:21:32;;;;;;;0.30;0.30;;;7.20;99.90;;;;;;4421437;32;20081;-66
2023/05/03 05:23:58;;;;;;;0.40;0.40;;;7.30;99.90;;;;;;4424011;32;20287;-65
2023/05/03 05:26:26;;;;;;;4.12;0.57;;;7.30;99.90;;;;;;4410405;32;20081;-66
2023/05/03 05:28:51;;;;;;;0.40;0.40;;;7.40;99.90;;;;;;4417589;32;20127;-65
2023/05/03 05:31:17;;;;;;;0.30;0.30;;;7.50;99.90;;;;;;4400150;32;20567;-65
2023/05/03 05:33:43;;;;;;;0.30;0.30;;;7.60;99.90;;;;;;4415416;32;20074;-66
2023/05/03 05:36:10;;;;;;;0.30;0.30;;;7.70;99.90;;;;;;4420036;32;20521;-66
2023/05/03 05:38:36;;;;;;;5.00;0.65;;;7.70;99.90;;;;;;4417995;32;20125;-66
2023/05/03 05:41:05;;;;;;;0.30;0.30;;;7.70;99.90;;;;;;4419937;32;20098;-66
2023/05/03 05:43:31;;;;;;;0.40;0.40;;;7.80;99.90;;;;;;4403385;32;20180;-66
2023/05/03 05:45:57;;;;;;;0.35;0.35;;;7.90;99.90;;;;;;4411311;32;20089;-66
2023/05/03 05:48:23;;;;;;;0.77;0.77;;;7.90;99.90;;;;;;4416736;32;20102;-66
2023/05/03 05:50:48;;;;;;;0.32;0.32;;;7.90;99.90;;;;;;4407755;32;20118;-66
2023/05/03 05:53:14;;;;;;;0.30;0.30;;;8.00;99.90;;;;;;4412129;32;20128;-66
2023/05/03 05:55:39;;;;;;;0.40;0.40;;;8.10;99.90;;;;;;4412349;32;20078;-66
2023/05/03 05:58:05;;;;;;;0.80;0.60;;;8.20;99.90;;;;;;4407996;32;20128;-66
2023/05/03 06:00:30;;;;;;;0.30;0.30;;;8.30;99.90;;;;;;4391231;32;20102;-66
2023/05/03 06:02:56;;;;;;;1.23;1.10;;;8.40;99.90;;;;;;4391794;32;20322;-65
2023/05/03 06:05:22;;;;;;;0.40;0.40;;;8.50;99.90;;;;;;4383037;32;20105;-65
2023/05/03 06:07:48;;;;;;;0.40;0.40;;;8.50;99.90;;;;;;4388228;32;20084;-65
2023/05/03 06:10:14;;;;;;;0.73;0.73;;;8.50;99.90;;;;;;4375100;32;20105;-65
2023/05/03 06:12:39;;;;;;;0.52;0.52;;;8.50;99.90;;;;;;4399557;32;20624;-66
2023/05/03 06:15:06;;;;;;;0.50;0.50;;;8.50;99.90;;;;;;4396840;32;22012;-65
2023/05/03 06:17:31;;;;;;;0.30;0.30;;;8.50;99.90;;;;;;4396885;32;20101;-65
2023/05/03 06:19:57;;;;;;;0.65;0.65;;;8.50;99.90;;;;;;4390432;32;20089;-66
2023/05/03 06:22:23;;;;;;;0.40;0.40;;;8.50;99.90;;;;;;4395560;32;20227;-65
2023/05/03 06:24:49;;;;;;;0.50;0.50;;;8.50;99.90;;;;;;4400658;32;20093;-66
2023/05/03 06:27:15;;;;;;;0.20;0.20;;;8.60;99.90;;;;;;4401345;32;20331;-66
2023/05/03 06:29:43;;;;;;;0.30;0.30;;;8.70;99.90;;;;;;4400845;32;20175;-65
2023/05/03 06:32:08;;;;;;;0.30;0.30;;;8.80;99.90;;;;;;4397445;32;20905;-65
2023/05/03 06:34:34;;;;;;;2.53;0.85;;;8.80;99.90;;;;;;4396294;32;20141;-65
2023/05/03 06:36:59;;;;;;;30.98;0.62;;;8.90;99.90;;;;;;4398153;32;20950;-65
2023/05/03 06:39:25;;;;;;;0.50;0.50;;;9.00;99.90;;;;;;4402757;32;20089;-65
2023/05/03 06:41:51;;;;;;;0.30;0.30;;;9.10;99.90;;;;;;4398517;32;20082;-67
2023/05/03 06:44:18;;;;;;;0.40;0.40;;;9.20;99.90;;;;;;4397486;32;20143;-65
2023/05/03 06:46:43;;;;;;;8.60;1.37;;;9.30;99.90;;;;;;4402742;32;20496;-66
2023/05/03 06:49:09;;;;;;;0.40;0.40;;;9.20;99.90;;;;;;4398306;32;20101;-64
2023/05/03 06:51:34;;;;;;;5.07;1.30;;;9.20;99.90;;;;;;4391659;32;20085;-66
2023/05/03 06:54:05;;;;;;;8.98;2.95;;;9.30;99.90;;;;;;4397610;32;20454;-65
2023/05/03 06:56:32;;;;;;;0.40;0.40;;;9.50;99.90;;;;;;4391685;32;20069;-66
2023/05/03 06:58:58;;;;;;;0.30;0.30;;;9.50;99.90;;;;;;4392194;32;20101;-66
2023/05/03 07:01:23;;;;;;;0.55;0.55;;;9.50;99.90;;;;;;4394998;32;20144;-66
2023/05/03 07:03:49;;;;;;;0.30;0.30;;;9.50;99.90;;;;;;4396777;32;20077;-66
2023/05/03 07:06:15;;;;;;;0.37;0.37;;;9.50;99.90;;;;;;4400500;32;20092;-66
2023/05/03 07:08:41;;;;;;;0.68;0.68;;;9.60;99.90;;;;;;4401977;32;20540;-66
2023/05/03 07:11:06;;;;;;;0.40;0.40;;;9.60;99.90;;;;;;4391807;32;20082;-65
2023/05/03 07:13:32;;;;;;;0.50;0.50;;;9.60;99.90;;;;;;4391064;32;20090;-66
2023/05/03 07:15:57;;;;;;;5.47;1.25;;;9.60;99.90;;;;;;4378336;32;20188;-66
2023/05/03 07:18:23;;;;;;;1.55;0.85;;;9.70;99.90;;;;;;4386522;32;20102;-66
2023/05/03 07:20:48;;;;;;;1.02;0.88;;;9.60;99.90;;;;;;4396295;32;20533;-65
2023/05/03 07:23:14;;;;;;;23.65;0.60;;;9.70;99.90;;;;;;4392342;32;20431;-65
2023/05/03 07:25:41;;;;;;;3.72;1.75;;;9.80;99.90;;;;;;4395527;32;20945;-66
2023/05/03 07:28:06;;;;;;;0.40;0.40;;;10.00;99.90;;;;;;4389580;32;20852;-65
2023/05/03 07:30:32;;;;;;;0.30;0.30;;;10.20;99.90;;;;;;4388017;32;20872;-65
2023/05/03 07:32:58;;;;;;;1.73;0.98;;;10.30;99.90;;;;;;4390256;32;20235;-66
2023/05/03 07:35:25;;;;;;;0.30;0.30;;;10.40;99.90;;;;;;4396234;32;20057;-65
2023/05/03 07:37:50;;;;;;;0.47;0.47;;;10.60;99.90;;;;;;4396735;32;20093;-65
2023/05/03 07:40:16;;;;;;;0.40;0.40;;;10.70;99.90;;;;;;4393654;32;21018;-66
2023/05/03 07:42:41;;;;;;;1.83;0.60;;;10.80;99.90;;;;;;4405084;32;20093;-66
2023/05/03 07:45:07;;;;;;;0.73;0.73;;;10.90;99.90;;;;;;4414531;32;20440;-66
2023/05/03 07:47:36;;;;;;;0.40;0.40;;;11.00;99.90;;;;;;4403805;32;20134;-66
2023/05/03 07:50:03;;;;;;;4.03;1.17;;;10.80;99.90;;;;;;4398371;32;20086;-65
2023/05/03 07:52:29;;;;;;;0.68;0.57;;;10.90;99.90;;;;;;4390188;32;20523;-65
2023/05/03 07:54:55;;;;;;;0.40;0.40;;;11.10;99.90;;;;;;4390652;32;20112;-64
2023/05/03 07:57:22;;;;;;;0.50;0.50;;;11.30;99.90;;;;;;4384351;32;20117;-63
2023/05/03 07:59:48;;;;;;;2.97;0.50;;;11.30;99.90;;;;;;4387909;32;20212;-64
2023/05/03 08:02:13;;;;;;;0.47;0.47;;;11.40;99.90;;;;;;4389607;32;20509;-66
2023/05/03 08:04:39;;;;;;;0.40;0.40;;;11.30;99.90;;;;;;4385551;32;21398;-64
2023/05/03 08:07:04;;;;;;;0.37;0.37;;;11.20;99.90;;;;;;4384694;32;20817;-66
2023/05/03 08:09:31;;;;;;;0.40;0.40;;;11.30;99.90;;;;;;4388414;32;21181;-65
2023/05/03 08:11:56;;;;;;;1.05;0.95;;;11.30;99.90;;;;;;4388406;32;20114;-66
2023/05/03 08:14:22;;;;;;;0.55;0.52;;;11.40;99.90;;;;;;4384219;32;20081;-66
2023/05/03 08:16:48;;;;;;;0.30;0.30;;;11.40;99.90;;;;;;4375109;32;20101;-66
2023/05/03 08:19:13;;;;;;;0.37;0.37;;;11.50;99.90;;;;;;4393448;32;21685;-65
2023/05/03 08:21:40;;;;;;;0.50;0.50;;;11.50;99.90;;;;;;4390729;32;20081;-66
2023/05/03 08:24:07;;;;;;;0.40;0.40;;;11.60;99.90;;;;;;4372490;32;20093;-66
2023/05/03 08:26:33;;;;;;;0.50;0.50;;;11.80;99.90;;;;;;4385179;32;20097;-66
2023/05/03 08:28:59;;;;;;;0.30;0.30;;;12.00;99.90;;;;;;4385583;32;20074;-65
2023/05/03 08:31:26;;;;;;;0.40;0.40;;;12.00;99.90;;;;;;4392610;32;20089;-64
2023/05/03 08:33:51;;;;;;;0.40;0.40;;;11.90;99.90;;;;;;4389511;32;20117;-64
2023/05/03 08:36:17;;;;;;;3.40;0.70;;;11.90;99.90;;;;;;4395836;32;20108;-65
2023/05/03 08:38:42;;;;;;;1.98;0.85;;;12.10;99.90;;;;;;4385969;32;20098;-65
2023/05/03 08:41:20;;;;;;;1.35;0.70;;;12.20;99.90;;;;;;4397057;32;20199;-65
2023/05/03 08:43:51;;;;;;;0.40;0.40;;;12.20;99.30;;;;;;4382133;32;20580;-64
2023/05/03 08:46:17;;;;;;;1.17;0.95;;;12.10;99.90;;;;;;4370490;32;21759;-65
2023/05/03 08:48:46;;;;;;;0.60;0.60;;;12.00;99.90;;;;;;4366445;32;20234;-65
2023/05/03 08:51:12;;;;;;;2.90;1.30;;;12.20;99.90;;;;;;4381806;32;20142;-65
2023/05/03 08:53:38;;;;;;;0.43;0.40;;;12.20;99.10;;;;;;4383955;32;20144;-65
2023/05/03 08:56:08;;;;;;;0.50;0.50;;;12.10;99.00;;;;;;4391122;32;20237;-65
2023/05/03 08:58:35;;;;;;;0.40;0.40;;;12.00;99.90;;;;;;4384238;32;20785;-65
2023/05/03 09:01:05;;;;;;;0.30;0.30;;;12.10;99.90;;;;;;4394463;32;20227;-65
2023/05/03 09:03:32;;;;;;;0.37;0.37;;;12.10;99.80;;;;;;4394539;32;20311;-64
2023/05/03 09:06:04;;;;;;;0.40;0.40;;;12.00;99.20;;;;;;4392823;32;20244;-64
2023/05/03 09:08:31;;;;;;;0.30;0.30;;;11.60;99.90;;;;;;4392707;32;20122;-65
2023/05/03 09:10:57;;;;;;;1.00;0.73;;;11.70;99.90;;;;;;4387074;32;20257;-65
2023/05/03 09:13:30;;;;;;;0.35;0.35;;;12.10;99.90;;;;;;4394339;32;20801;-65
2023/05/03 09:15:56;;;;;;;1.65;1.10;;;12.00;99.80;;;;;;4371058;32;20077;-65
2023/05/03 09:18:23;;;;;;;1.87;1.50;;;12.00;99.80;;;;;;4386592;32;20085;-65
2023/05/03 09:20:50;;;;;;;0.50;0.50;;;12.10;99.70;;;;;;4381234;32;20081;-65
2023/05/03 09:23:32;;;;;;;4.57;0.50;;;12.40;99.70;;;;;;4377079;32;20929;-65
2023/05/03 09:25:59;;;;;;;0.30;0.30;;;12.50;98.30;;;;;;4385425;32;20588;-65
2023/05/03 09:28:24;;;;;;;0.30;0.30;;;12.70;99.30;;;;;;4394305;32;20620;-65
2023/05/03 09:31:04;;;;;;;0.40;0.40;;;12.90;98.20;;;;;;4392471;32;20371;-66
2023/05/03 09:33:29;;;;;;;0.52;0.50;;;13.30;99.10;;;;;;4373628;32;20551;-65
2023/05/03 09:36:01;;;;;;;0.80;0.80;;;13.80;98.40;;;;;;4369719;32;20653;-65
2023/05/03 09:38:30;;;;;;;0.40;0.40;;;14.10;97.10;;;;;;4384839;32;20113;-65
2023/05/03 09:40:56;;;;;;;0.55;0.40;;;14.40;97.20;;;;;;4365633;32;20678;-65
2023/05/03 09:43:21;;;;;;;0.60;0.60;;;14.30;96.10;;;;;;4372220;32;20145;-65
2023/05/03 09:45:48;;;;;;;1.65;1.12;;;14.40;96.60;;;;;;4392127;32;20165;-65
2023/05/03 09:48:15;;;;;;;0.40;0.40;;;14.40;95.60;;;;;;4398478;32;20097;-65
2023/05/03 09:50:42;;;;;;;0.30;0.30;;;14.70;96.00;;;;;;4384808;32;20081;-65
2023/05/03 09:53:08;;;;;;;0.40;0.40;;;15.10;95.10;;;;;;4386709;32;20690;-64
2023/05/03 09:55:36;;;;;;;0.80;0.80;;;14.90;94.40;;;;;;4394153;32;20445;-65
2023/05/03 09:58:06;;;;;;;0.30;0.30;;;14.80;95.20;;;;;;4371077;32;20081;-66
2023/05/03 10:00:36;;;;;;;0.68;0.68;;;15.00;94.10;;;;;;4386674;32;20815;-65
2023/05/03 10:03:08;;;;;;;2.17;1.05;;;15.20;93.30;;;;;;4378596;32;20136;-65
2023/05/03 10:05:41;;;;;;;0.30;0.30;;;15.00;92.80;;;;;;4384792;32;20077;-65
2023/05/03 10:08:09;;;;;;;0.37;0.37;;;14.60;93.20;;;;;;4391172;32;20145;-65
2023/05/03 10:10:37;;;;;;;0.30;0.30;;;14.60;93.50;;;;;;4387251;32;20143;-65
2023/05/03 10:13:03;;;;;;;0.40;0.40;;;15.20;94.20;;;;;;4389703;32;20082;-65
2023/05/03 10:15:29;;;;;;;0.40;0.40;;;15.40;93.60;;;;;;4393439;32;20181;-65
2023/05/03 10:18:00;;;;;;;0.52;0.50;;;15.40;93.00;;;;;;4381802;32;20089;-65
2023/05/03 10:20:31;;;;;;;;;;;15.60;92.30;;;;;;4394113;32;20081;-65
2023/05/03 10:23:05;;;;;;;;;;;15.70;92.60;;;;;;4401989;32;20575;-66
2023/05/03 10:25:33;;;;;;;0.77;0.70;;;15.90;92.30;;;;;;4401695;32;19963;-65
2023/05/03 10:28:03;;;;;;;0.30;0.30;;;16.10;92.60;;;;;;4396693;32;20093;-65
2023/05/03 10:30:31;;;;;;;1.40;0.77;;;16.10;93.00;;;;;;4387382;32;20109;-66
2023/05/03 10:32:59;;;;;;;2.83;1.15;;;16.20;92.50;;;;;;4372728;32;20180;-65
2023/05/03 10:35:27;;;;;;;0.60;0.60;;;16.20;92.40;;;;;;4387202;32;20053;-65
2023/05/03 10:37:55;;;;;;;0.90;0.88;;;16.70;92.50;;;;;;4388204;32;20196;-65
2023/05/03 10:40:21;;;;;;;0.30;0.30;;;16.90;92.70;;;;;;4391080;32;20074;-64
2023/05/03 10:42:52;;;;;;;0.30;0.30;;;17.00;91.40;;;;;;4400961;32;20549;-64
2023/05/03 10:45:21;;;;;;;0.35;0.35;;;16.90;91.30;;;;;;4404941;32;20669;-65
2023/05/03 10:48:11;;;;;;;2.00;0.93;;;16.80;91.60;;;;;;4400588;32;20053;-65
2023/05/03 10:50:37;;;;;;;0.73;0.73;;;16.90;91.20;;;;;;4397163;32;20054;-65
2023/05/03 10:53:03;;;;;;;0.30;0.30;;;17.20;91.80;;;;;;4400267;32;20074;-65
2023/05/03 10:55:29;;;;;;;0.30;0.30;;;17.10;91.40;;;;;;4390976;32;20706;-65
2023/05/03 10:57:57;;;;;;;0.30;0.30;;;17.00;90.90;;;;;;4394895;32;20093;-65
2023/05/03 11:00:33;;;;;;;0.85;0.60;;;16.90;91.20;;;;;;4387158;32;20093;-65
2023/05/03 11:03:20;;;;;;;0.40;0.40;;;16.80;91.60;;;;;;4380372;32;20644;-65
2023/05/03 11:05:47;;;;;;;0.70;0.70;;;17.30;90.30;;;;;;4392301;32;20082;-65
2023/05/03 11:08:16;;;;;;;0.45;0.45;;;17.50;90.40;;;;;;4390782;32;20474;-65
2023/05/03 11:10:45;;;;;;;9.00;0.40;;;17.90;90.70;;;;;;4401310;32;20101;-65
2023/05/03 11:13:11;;;;;;;0.40;0.40;;;18.20;89.60;;;;;;4403177;32;20049;-65
2023/05/03 11:15:43;;;;;;;0.30;0.30;;;18.50;88.30;;;;;;4411914;32;20064;-65
2023/05/03 11:18:10;;;;;;;0.70;0.60;;;18.70;85.70;;;;;;4415750;32;20123;-65
2023/05/03 11:20:37;;;;;;;0.85;0.73;;;18.70;85.60;;;;;;4409834;32;20106;-65
2023/05/03 11:23:04;;;;;;;25.80;0.80;;;18.40;87.50;;;;;;4384700;32;20077;-66
2023/05/03 11:25:32;;;;;;;1.12;0.95;;;18.90;85.50;;;;;;4396888;32;20164;-66
2023/05/03 11:27:59;;;;;;;6.32;1.42;;;19.10;83.90;;;;;;4411570;32;20551;-66
2023/05/03 11:30:26;;;;;;;1.08;0.62;;;19.30;83.40;;;;;;4405329;32;20198;-65
2023/05/03 11:32:52;;;;;;;0.45;0.45;;;19.60;80.20;;;;;;4402613;32;20078;-65
2023/05/03 11:35:18;;;;;;;0.30;0.30;;;19.50;83.30;;;;;;4397152;32;20106;-65
2023/05/03 11:37:44;;;;;;;13.25;0.98;;;19.30;82.80;;;;;;4391555;32;20093;-65
2023/05/03 11:40:17;;;;;;;0.95;0.77;;;19.20;82.30;;;;;;4408035;32;20069;-64
2023/05/03 11:42:54;;;;;;;0.20;0.20;;;19.10;83.10;;;;;;4402756;32;20446;-66
2023/05/03 11:45:24;;;;;;;0.43;0.43;;;19.40;82.40;;;;;;4363275;32;83259;-65
2023/05/03 11:47:50;;;;;;;;;;;19.30;79.80;;;;;;4393546;32;20085;-65
2023/05/03 11:50:18;;;;;;;0.30;0.30;;;19.90;79.10;;;;;;4383336;32;19967;-65
2023/05/03 11:52:44;;;;;;;0.25;0.25;;;20.20;77.30;;;;;;4403126;32;20219;-66
2023/05/03 11:55:11;;;;;;;0.20;0.20;;;20.40;77.90;;;;;;4386894;32;20172;-66
2023/05/03 11:57:37;;;;;;;0.30;0.30;;;20.60;76.20;;;;;;4398161;32;20081;-65
2023/05/03 12:00:21;;;;;;;0.50;0.50;;;20.40;75.60;;;;;;4395208;32;20469;-66
2023/05/03 12:02:47;;;;;;;0.98;0.70;;;20.30;76.50;;;;;;4399110;32;20125;-66
2023/05/03 12:05:13;;;;;;;0.20;0.20;;;20.50;75.60;;;;;;4379367;32;20093;-66
2023/05/03 12:07:39;;;;;;;0.65;0.65;;;21.10;75.50;;;;;;4401801;32;20588;-66
2023/05/03 12:10:15;;;;;;;0.22;0.22;;;21.00;75.10;;;;;;4406283;32;20192;-66
2023/05/03 12:12:51;;;;;;;0.20;0.20;;;20.50;75.40;;;;;;4400724;32;20126;-66
2023/05/03 12:15:29;;;;;;;0.20;0.20;;;21.10;76.60;;;;;;4392454;32;20085;-65
2023/05/03 12:17:56;;;;;;;0.45;0.43;;;21.10;75.70;;;;;;4403846;32;20207;-65
2023/05/03 12:20:22;;;;;;;0.45;0.45;;;20.80;75.00;;;;;;4383642;32;20084;-66
2023/05/03 12:22:54;;;;;;;0.40;0.35;;;21.20;73.60;;;;;;4388810;32;20859;-66
2023/05/03 12:25:20;;;;;;;0.20;0.20;;;21.40;72.30;;;;;;4394359;32;20085;-65
2023/05/03 12:27:46;;;;;;;0.65;0.50;;;21.20;72.30;;;;;;4407589;32;20106;-66
2023/05/03 12:30:13;;;;;;;0.10;0.10;;;20.90;70.00;;;;;;4404837;32;20081;-66
2023/05/03 12:32:38;;;;;;;0.50;0.50;;;21.30;72.40;;;;;;4405718;32;20121;-66
2023/05/03 12:35:07;;;;;;;0.20;0.20;;;22.10;71.80;;;;;;4405958;32;20069;-65
2023/05/03 12:37:33;;;;;;;0.40;0.40;;;22.30;72.70;;;;;;4401165;32;20097;-65
2023/05/03 12:40:00;;;;;;;0.25;0.25;;;23.00;68.70;;;;;;4387227;32;20097;-65
2023/05/03 12:42:26;;;;;;;0.80;0.65;;;23.40;71.00;;;;;;4402491;32;20093;-66
2023/05/03 12:44:56;;;;;;;0.20;0.20;;;23.80;68.90;;;;;;4391038;32;20090;-67
2023/05/03 12:47:22;;;;;;;0.00;0.00;;;22.60;69.00;;;;;;4391326;32;20105;-66
2023/05/03 12:49:47;;;;;;;0.10;0.10;;;22.20;71.70;;;;;;4404183;32;20090;-66
2023/05/03 12:52:13;;;;;;;0.17;0.17;;;22.50;70.80;;;;;;4388465;32;20169;-66